createdAt,value
2018-04-02T00:01:40.205Z,19.63
2018-04-02T00:04:07.662Z,19.33
2018-04-02T00:06:35.132Z,21.27
2018-04-02T00:09:02.598Z,20.57
2018-04-02T00:11:30.818Z,21.03
2018-04-02T00:13:58.277Z,20.13
2018-04-02T00:16:25.806Z,18.83
2018-04-02T00:18:53.233Z,19.20
2018-04-02T00:21:20.681Z,21.70
2018-04-02T00:23:48.166Z,19.20
2018-04-02T00:26:16.387Z,18.87
2018-04-02T00:28:43.855Z,18.00
2018-04-02T00:31:11.318Z,18.90
2018-04-02T00:33:38.779Z,17.60
2018-04-02T00:36:06.231Z,15.83
2018-04-02T00:38:33.697Z,16.67
2018-04-02T00:41:02.667Z,16.20
2018-04-02T00:43:30.134Z,17.23
2018-04-02T00:45:57.586Z,16.40
2018-04-02T00:48:25.040Z,18.57
2018-04-02T00:50:52.498Z,20.47
2018-04-02T00:53:19.945Z,21.60
2018-04-02T00:55:47.414Z,21.93
2018-04-02T00:58:14.873Z,24.50
2018-04-02T01:00:42.333Z,21.00
2018-04-02T01:03:09.804Z,22.07
2018-04-02T01:05:37.250Z,23.53
2018-04-02T01:08:04.710Z,25.30
2018-04-02T01:10:32.173Z,23.57
2018-04-02T01:12:59.638Z,25.00
2018-04-02T01:15:27.856Z,25.43
2018-04-02T01:17:55.336Z,26.13
2018-04-02T01:20:22.809Z,26.40
2018-04-02T01:22:50.274Z,25.03
2018-04-02T01:25:17.730Z,26.40
2018-04-02T01:27:45.198Z,25.80
2018-04-02T01:30:13.418Z,25.07
2018-04-02T01:32:40.895Z,24.50
2018-04-02T01:35:08.365Z,26.17
2018-04-02T01:37:35.860Z,26.47
2018-04-02T01:40:03.338Z,27.73
2018-04-02T01:42:30.798Z,24.50
2018-04-02T01:44:58.258Z,26.70
2018-04-02T01:47:25.730Z,26.30
2018-04-02T01:49:53.194Z,26.27
2018-04-02T01:52:20.676Z,31.40
2018-04-02T01:54:48.488Z,27.90
2018-04-02T01:57:15.945Z,31.67
2018-04-02T01:59:43.418Z,28.30
2018-04-02T02:02:10.866Z,31.23
2018-04-02T02:04:38.326Z,30.00
2018-04-02T02:07:05.785Z,30.30
2018-04-02T02:09:33.246Z,27.93
2018-04-02T02:12:00.710Z,32.30
2018-04-02T02:14:28.180Z,31.50
2018-04-02T02:16:55.656Z,32.87
2018-04-02T02:19:23.122Z,30.50
2018-04-02T02:21:51.361Z,33.87
2018-04-02T02:24:18.801Z,35.70
2018-04-02T02:26:46.275Z,34.53
2018-04-02T02:29:13.737Z,35.80
2018-04-02T02:31:41.215Z,37.80
2018-04-02T02:34:08.669Z,37.17
2018-04-02T02:36:36.134Z,34.60
2018-04-02T02:39:04.371Z,37.23
2018-04-02T02:41:31.841Z,38.20
2018-04-02T02:43:59.306Z,36.37
2018-04-02T02:46:26.757Z,38.20
2018-04-02T02:48:54.230Z,34.33
2018-04-02T02:51:22.454Z,36.60
2018-04-02T02:53:49.911Z,37.20
2018-04-02T02:56:17.384Z,36.63
2018-04-02T02:58:44.835Z,36.27
2018-04-02T03:01:12.293Z,38.30
2018-04-02T03:03:40.778Z,35.73
2018-04-02T03:06:08.255Z,35.77
2018-04-02T03:08:35.740Z,33.70
2018-04-02T03:11:03.969Z,33.93
2018-04-02T03:13:31.445Z,37.07
2018-04-02T03:15:58.917Z,37.57
2018-04-02T03:18:27.135Z,37.37
2018-04-02T03:20:54.607Z,36.50
2018-04-02T03:23:22.073Z,35.90
2018-04-02T03:25:49.526Z,35.57
2018-04-02T03:28:17.724Z,35.37
2018-04-02T03:30:45.192Z,34.40
2018-04-02T03:33:12.650Z,36.23
2018-04-02T03:35:40.883Z,32.90
2018-04-02T03:38:08.347Z,34.43
2018-04-02T03:40:36.084Z,35.93
2018-04-02T03:43:03.542Z,36.20
2018-04-02T03:45:31.006Z,36.00
2018-04-02T03:47:58.473Z,36.30
2018-04-02T03:50:25.938Z,35.93
2018-04-02T03:52:53.406Z,39.53
2018-04-02T03:55:20.889Z,38.30
2018-04-02T03:57:50.105Z,38.30
2018-04-02T04:00:17.581Z,37.50
2018-04-02T04:02:45.042Z,36.00
2018-04-02T04:05:12.503Z,39.67
2018-04-02T04:07:39.966Z,39.23
2018-04-02T04:10:07.447Z,37.83
2018-04-02T04:12:34.914Z,34.60
2018-04-02T04:15:02.399Z,34.37
2018-04-02T04:17:30.486Z,37.00
2018-04-02T04:19:57.949Z,36.17
2018-04-02T04:22:25.415Z,37.17
2018-04-02T04:24:52.876Z,37.03
2018-04-02T04:27:20.341Z,39.80
2018-04-02T04:29:47.813Z,40.90
2018-04-02T04:32:15.274Z,40.37
2018-04-02T04:34:42.742Z,40.50
2018-04-02T04:37:10.190Z,40.57
2018-04-02T04:39:37.655Z,38.97
2018-04-02T04:42:05.124Z,41.07
2018-04-02T04:44:33.350Z,38.40
2018-04-02T04:47:00.808Z,37.80
2018-04-02T04:49:28.274Z,36.50
2018-04-02T04:51:55.732Z,38.97
2018-04-02T04:54:23.181Z,37.50
2018-04-02T04:56:50.646Z,37.23
2018-04-02T04:59:18.105Z,36.50
2018-04-02T05:01:45.578Z,38.07
2018-04-02T05:04:13.042Z,37.23
2018-04-02T05:06:40.510Z,39.37
2018-04-02T05:09:08.773Z,38.40
2018-04-02T05:11:36.234Z,37.87
2018-04-02T05:14:04.470Z,38.97
2018-04-02T05:16:31.937Z,39.63
2018-04-02T05:18:59.393Z,41.37
2018-04-02T05:21:26.853Z,42.07
2018-04-02T05:23:54.323Z,38.00
2018-04-02T05:26:21.777Z,38.43
2018-04-02T05:28:49.236Z,39.40
2018-04-02T05:31:16.754Z,41.90
2018-04-02T05:33:44.215Z,41.23
2018-04-02T05:36:11.734Z,41.30
2018-04-02T05:38:39.961Z,37.57
2018-04-02T05:41:07.422Z,39.97
2018-04-02T05:43:34.885Z,39.47
2018-04-02T05:46:02.355Z,43.97
2018-04-02T05:48:30.694Z,38.90
2018-04-02T05:50:58.182Z,42.53
2018-04-02T05:53:25.626Z,43.73
2018-04-02T05:55:53.092Z,42.03
2018-04-02T05:58:20.550Z,44.70
2018-04-02T06:00:48.373Z,47.50
2018-04-02T06:03:15.866Z,45.60
2018-04-02T06:05:43.330Z,50.03
2018-04-02T06:08:10.803Z,47.93
2018-04-02T06:10:38.250Z,45.03
2018-04-02T06:13:05.717Z,46.03
2018-04-02T06:15:33.178Z,48.00
2018-04-02T06:18:01.395Z,45.83
2018-04-02T06:20:28.885Z,45.50
2018-04-02T06:22:56.359Z,44.30
2018-04-02T06:25:23.822Z,47.43
2018-04-02T06:27:52.058Z,47.90
2018-04-02T06:30:19.525Z,45.00
2018-04-02T06:32:46.998Z,43.53
2018-04-02T06:35:14.476Z,46.37
2018-04-02T06:37:42.756Z,47.27
2018-04-02T06:40:10.970Z,44.60
2018-04-02T06:42:38.433Z,44.97
2018-04-02T06:45:05.937Z,42.80
2018-04-02T06:47:33.350Z,43.60
2018-04-02T06:50:01.735Z,44.67
2018-04-02T06:52:29.189Z,44.90
2018-04-02T06:54:56.646Z,40.60
2018-04-02T06:57:24.117Z,45.70
2018-04-02T06:59:51.600Z,45.10
2018-04-02T07:02:19.826Z,44.07
2018-04-02T07:04:47.293Z,39.17
2018-04-02T07:07:14.784Z,39.10
2018-04-02T07:09:42.250Z,41.60
2018-04-02T07:12:10.491Z,39.57
2018-04-02T07:14:37.953Z,38.03
2018-04-02T07:17:05.474Z,37.40
2018-04-02T07:19:32.985Z,38.90
2018-04-02T07:22:00.493Z,41.00
2018-04-02T07:24:28.725Z,38.50
2018-04-02T07:26:56.948Z,36.07
2018-04-02T07:29:24.583Z,37.20
2018-04-02T07:31:52.046Z,35.07
2018-04-02T07:34:19.512Z,35.10
2018-04-02T07:36:46.981Z,37.73
2018-04-02T07:39:14.647Z,35.07
2018-04-02T07:41:42.117Z,33.83
2018-04-02T07:44:09.765Z,34.87
2018-04-02T07:46:37.221Z,35.60
2018-04-02T07:49:04.844Z,34.67
2018-04-02T07:51:32.338Z,33.80
2018-04-02T07:53:59.809Z,33.17
2018-04-02T07:56:27.366Z,34.67
2018-04-02T07:58:54.828Z,31.90
2018-04-02T08:01:22.326Z,32.70
2018-04-02T08:03:50.626Z,33.43
2018-04-02T08:06:18.109Z,33.30
2018-04-02T08:08:45.591Z,32.87
2018-04-02T08:11:13.041Z,33.50
2018-04-02T08:13:40.512Z,35.23
2018-04-02T08:16:08.003Z,35.93
2018-04-02T08:18:35.504Z,32.47
2018-04-02T08:21:02.994Z,31.57
2018-04-02T08:23:31.216Z,31.30
2018-04-02T08:25:58.665Z,33.90
2018-04-02T08:28:26.147Z,31.50
2018-04-02T08:30:53.604Z,33.00
2018-04-02T08:33:21.180Z,30.50
2018-04-02T08:35:48.644Z,29.70
2018-04-02T08:38:16.118Z,30.40
2018-04-02T08:40:44.350Z,31.47
2018-04-02T08:43:11.905Z,31.23
2018-04-02T08:45:39.496Z,29.07
2018-04-02T08:48:07.722Z,28.53
2018-04-02T08:50:35.170Z,29.43
2018-04-02T08:53:02.650Z,29.90
2018-04-02T08:55:30.280Z,29.93
2018-04-02T08:57:57.738Z,28.80
2018-04-02T09:00:25.214Z,30.10
2018-04-02T09:02:52.684Z,28.97
2018-04-02T09:05:20.165Z,29.57
2018-04-02T09:07:47.674Z,30.93
2018-04-02T09:10:15.238Z,26.77
2018-04-02T09:12:42.697Z,27.10
2018-04-02T09:15:10.586Z,28.43
2018-04-02T09:17:38.044Z,28.30
2018-04-02T09:20:05.523Z,25.63
2018-04-02T09:22:32.982Z,25.33
2018-04-02T09:25:00.474Z,29.40
2018-04-02T09:27:27.975Z,25.40
2018-04-02T09:29:55.428Z,23.70
2018-04-02T09:32:22.908Z,26.27
2018-04-02T09:34:50.354Z,25.20
2018-04-02T09:37:17.830Z,26.30
2018-04-02T09:39:46.078Z,25.67
2018-04-02T09:42:13.524Z,25.53
2018-04-02T09:44:40.997Z,24.30
2018-04-02T09:47:09.080Z,25.70
2018-04-02T09:49:36.530Z,26.87
2018-04-02T09:52:04.005Z,26.00
2018-04-02T09:54:32.243Z,23.50
2018-04-02T09:56:59.701Z,24.60
2018-04-02T09:59:27.235Z,23.73
2018-04-02T10:04:55.840Z,23.57
2018-04-02T10:07:23.259Z,25.37
2018-04-02T10:09:51.533Z,23.27
2018-04-02T10:12:19.766Z,22.63
2018-04-02T10:14:47.238Z,23.17
2018-04-02T10:17:14.701Z,22.33
2018-04-02T10:19:42.170Z,22.23
2018-04-02T10:22:09.621Z,21.90
2018-04-02T10:24:37.094Z,21.67
2018-04-02T10:27:05.333Z,20.97
2018-04-02T10:29:32.866Z,20.37
2018-04-02T10:32:01.062Z,20.80
2018-04-02T10:34:28.513Z,20.93
2018-04-02T10:36:56.031Z,21.87
2018-04-02T10:39:23.824Z,22.20
2018-04-02T10:41:51.290Z,22.50
2018-04-02T10:44:18.765Z,22.73
2018-04-02T10:46:46.270Z,20.93
2018-04-02T10:49:13.734Z,21.33
2018-04-02T10:51:41.227Z,18.60
2018-04-02T10:54:08.687Z,19.53
2018-04-02T10:56:36.149Z,17.57
2018-04-02T10:59:03.605Z,19.60
2018-04-02T11:01:31.073Z,18.87
2018-04-02T11:03:58.530Z,16.63
2018-04-02T11:06:25.974Z,17.80
2018-04-02T11:08:53.454Z,17.13
2018-04-02T11:11:20.978Z,16.90
2018-04-02T11:13:48.472Z,17.20
2018-04-02T11:16:16.743Z,16.73
2018-04-02T11:18:44.215Z,14.50
2018-04-02T11:21:12.463Z,15.23
2018-04-02T11:23:39.953Z,15.50
2018-04-02T11:26:07.398Z,16.00
2018-04-02T11:28:36.634Z,14.90
2018-04-02T11:31:04.118Z,15.47
2018-04-02T11:33:31.577Z,14.80
2018-04-02T11:35:59.045Z,16.00
2018-04-02T11:38:26.542Z,15.73
2018-04-02T11:40:54.008Z,14.43
2018-04-02T11:43:21.497Z,15.20
2018-04-02T11:45:48.964Z,14.87
2018-04-02T11:48:16.426Z,15.77
2018-04-02T11:50:43.894Z,15.77
2018-04-02T11:53:11.375Z,14.87
2018-04-02T11:55:38.831Z,14.27
2018-04-02T11:58:07.053Z,14.43
2018-04-02T12:00:34.525Z,15.93
2018-04-02T12:03:02.007Z,14.50
2018-04-02T12:05:30.229Z,13.73
2018-04-02T12:07:57.710Z,14.90
2018-04-02T12:10:25.177Z,13.20
2018-04-02T12:12:52.649Z,13.00
2018-04-02T12:15:20.898Z,13.00
2018-04-02T12:17:48.374Z,11.70
2018-04-02T12:20:16.643Z,12.87
2018-04-02T12:22:44.103Z,12.00
2018-04-02T12:25:11.580Z,11.03
2018-04-02T12:27:39.833Z,12.00
2018-04-02T12:30:07.323Z,10.83
2018-04-02T12:32:34.816Z,11.47
2018-04-02T12:35:02.281Z,10.50
2018-04-02T12:37:29.814Z,10.97
2018-04-02T12:39:57.279Z,9.43
2018-04-02T12:42:24.766Z,10.47
2018-04-02T12:44:52.219Z,9.80
2018-04-02T12:47:19.693Z,9.77
2018-04-02T12:49:47.158Z,10.47
2018-04-02T12:52:14.625Z,9.90
2018-04-02T12:54:42.858Z,10.50
2018-04-02T12:57:10.314Z,9.70
2018-04-02T12:59:37.779Z,10.63
2018-04-02T13:02:05.253Z,8.97
2018-04-02T13:04:32.713Z,8.87
2018-04-02T13:07:00.232Z,10.30
2018-04-02T13:09:27.685Z,8.57
2018-04-02T13:11:55.147Z,8.33
2018-04-02T13:14:23.406Z,9.10
2018-04-02T13:16:50.871Z,8.60
2018-04-02T13:19:18.392Z,7.30
2018-04-02T13:21:45.814Z,8.87
2018-04-02T13:24:13.291Z,8.03
2018-04-02T13:26:40.754Z,7.23
2018-04-02T13:29:08.984Z,7.10
2018-04-02T13:31:36.492Z,7.83
2018-04-02T13:34:03.910Z,8.13
2018-04-02T13:36:31.381Z,7.40
2018-04-02T13:38:58.865Z,6.40
2018-04-02T13:41:27.110Z,6.30
2018-04-02T13:43:54.590Z,6.20
2018-04-02T13:46:22.830Z,6.20
2018-04-02T13:48:50.306Z,5.97
2018-04-02T13:51:17.780Z,7.20
2018-04-02T13:53:45.872Z,6.03
2018-04-02T13:56:13.342Z,6.87
2018-04-02T13:58:40.842Z,6.27
2018-04-02T14:01:09.078Z,5.60
2018-04-02T14:03:36.557Z,5.43
2018-04-02T14:06:04.107Z,4.90
2018-04-02T14:08:32.322Z,4.90
2018-04-02T14:10:59.796Z,4.73
2018-04-02T14:13:27.269Z,4.30
2018-04-02T14:15:54.714Z,4.30
2018-04-02T14:18:22.168Z,3.30
2018-04-02T14:20:49.651Z,3.77
2018-04-02T14:23:17.109Z,3.27
2018-04-02T14:25:44.566Z,3.40
2018-04-02T14:28:12.459Z,3.30
2018-04-02T14:30:39.916Z,2.93
2018-04-02T14:33:07.454Z,3.60
2018-04-02T14:35:34.947Z,3.20
2018-04-02T14:38:02.398Z,3.73
2018-04-02T14:40:29.855Z,4.43
2018-04-02T14:42:57.342Z,4.30
2018-04-02T14:45:25.570Z,3.83
2018-04-02T14:47:53.278Z,2.97
2018-04-02T14:50:21.513Z,3.90
2018-04-02T14:52:48.986Z,4.27
2018-04-02T14:55:16.701Z,3.80
2018-04-02T14:57:45.910Z,4.10
2018-04-02T15:00:13.647Z,3.60
2018-04-02T15:02:41.101Z,3.80
2018-04-02T15:05:08.578Z,4.17
2018-04-02T15:07:36.135Z,3.70
2018-04-02T15:10:05.283Z,3.90
2018-04-02T15:12:32.745Z,3.30
2018-04-02T15:15:00.974Z,3.50
2018-04-02T15:17:28.477Z,3.63
2018-04-02T15:19:56.751Z,4.00
2018-04-02T15:22:25.002Z,3.73
2018-04-02T15:24:53.328Z,3.83
2018-04-02T15:27:20.821Z,3.30
2018-04-02T15:29:48.319Z,3.10
2018-04-02T15:32:15.774Z,3.50
2018-04-02T15:34:43.291Z,3.90
2018-04-02T15:37:10.774Z,3.33
2018-04-02T15:39:38.317Z,3.27
2018-04-02T15:42:13.935Z,3.97
2018-04-02T15:44:47.843Z,3.67
2018-04-02T15:49:55.210Z,3.27
2018-04-02T15:52:22.846Z,3.50
2018-04-02T15:54:50.298Z,3.77
2018-04-02T15:57:17.771Z,4.07
2018-04-02T15:59:45.255Z,3.60
2018-04-02T16:02:13.473Z,4.07
2018-04-02T16:04:40.971Z,3.87
2018-04-02T16:07:08.431Z,4.27
2018-04-02T16:09:35.890Z,5.23
2018-04-02T16:12:04.129Z,4.30
2018-04-02T16:14:31.644Z,4.50
2018-04-02T16:16:59.115Z,5.07
2018-04-02T16:19:26.570Z,4.23
2018-04-02T16:21:54.118Z,4.63
2018-04-02T16:24:21.577Z,4.20
2018-04-02T16:26:49.060Z,4.70
2018-04-02T16:29:16.514Z,4.43
2018-04-02T16:31:44.019Z,5.10
2018-04-02T16:34:11.486Z,4.40
2018-04-02T16:36:39.727Z,5.10
2018-04-02T16:39:07.201Z,4.53
2018-04-02T16:41:34.693Z,4.60
2018-04-02T16:44:02.914Z,4.83
2018-04-02T16:46:30.445Z,3.83
2018-04-02T16:48:57.904Z,3.53
2018-04-02T16:51:25.361Z,4.00
2018-04-02T16:53:53.788Z,4.13
2018-04-02T16:56:21.247Z,3.63
2018-04-02T16:58:49.030Z,3.57
2018-04-02T17:01:17.261Z,4.77
2018-04-02T17:03:44.723Z,3.77
2018-04-02T17:06:12.251Z,3.50
2018-04-02T17:08:39.657Z,3.80
2018-04-02T17:11:07.890Z,4.07
2018-04-02T17:13:35.450Z,3.60
2018-04-02T17:16:05.542Z,4.73
2018-04-02T17:18:33.054Z,3.20
2018-04-02T17:21:00.547Z,3.43
2018-04-02T17:23:29.359Z,3.93
2018-04-02T17:25:56.822Z,3.80
2018-04-02T17:28:24.294Z,3.80
2018-04-02T17:30:51.760Z,3.07
2018-04-02T17:33:19.233Z,2.90
2018-04-02T17:35:46.740Z,3.00
2018-04-02T17:38:14.211Z,3.10
2018-04-02T17:40:41.686Z,2.37
2018-04-02T17:43:09.156Z,2.23
2018-04-02T17:45:36.615Z,3.50
2018-04-02T17:48:04.085Z,2.80
2018-04-02T17:50:32.362Z,2.63
2018-04-02T17:52:59.830Z,3.00
2018-04-02T17:55:28.079Z,3.07
2018-04-02T17:57:55.557Z,3.10
2018-04-02T18:00:23.807Z,2.67
2018-04-02T18:02:51.289Z,3.23
2018-04-02T18:05:19.516Z,2.83
2018-04-02T18:07:47.008Z,3.50
2018-04-02T18:10:14.488Z,3.37
2018-04-02T18:12:41.986Z,3.57
2018-04-02T18:15:09.467Z,2.50
2018-04-02T18:17:36.933Z,3.13
2018-04-02T18:20:04.407Z,3.37
2018-04-02T18:22:32.653Z,3.47
2018-04-02T18:25:00.114Z,3.70
2018-04-02T18:27:27.594Z,3.50
2018-04-02T18:29:55.786Z,3.33
2018-04-02T18:32:23.246Z,3.97
2018-04-02T18:34:50.734Z,3.43
2018-04-02T18:37:18.215Z,4.30
2018-04-02T18:39:45.678Z,4.40
2018-04-02T18:42:13.133Z,3.87
2018-04-02T18:44:40.598Z,3.83
2018-04-02T18:47:08.073Z,3.83
2018-04-02T18:49:36.306Z,4.80
2018-04-02T18:52:03.795Z,4.30
2018-04-02T18:54:32.258Z,4.33
2018-04-02T18:56:59.711Z,4.90
2018-04-02T18:59:27.187Z,4.93
2018-04-02T19:01:54.730Z,4.80
2018-04-02T19:04:22.202Z,5.20
2018-04-02T19:06:50.260Z,4.90
2018-04-02T19:09:17.746Z,4.60
2018-04-02T19:11:45.972Z,4.83
2018-04-02T19:14:13.943Z,4.63
2018-04-02T19:16:41.422Z,5.33
2018-04-02T19:19:08.890Z,4.57
2018-04-02T19:21:37.123Z,5.07
2018-04-02T19:24:04.591Z,4.60
2018-04-02T19:26:32.405Z,4.30
2018-04-02T19:29:00.645Z,4.27
2018-04-02T19:31:28.107Z,4.73
2018-04-02T19:33:55.595Z,4.70
2018-04-02T19:36:23.817Z,3.73
2018-04-02T19:38:51.298Z,3.70
2018-04-02T19:41:18.813Z,3.37
2018-04-02T19:43:46.268Z,4.23
2018-04-02T19:46:13.766Z,3.90
2018-04-02T19:48:41.226Z,4.53
2018-04-02T19:51:08.710Z,3.70
2018-04-02T19:53:36.201Z,4.30
2018-04-02T19:56:03.746Z,4.80
2018-04-02T19:58:31.203Z,4.90
2018-04-02T20:00:58.687Z,4.50
2018-04-02T20:03:26.187Z,5.17
2018-04-02T20:05:54.470Z,4.57
2018-04-02T20:08:21.937Z,5.00
2018-04-02T20:10:49.485Z,4.30
2018-04-02T20:13:17.714Z,4.97
2018-04-02T20:15:45.194Z,5.27
2018-04-02T20:18:12.666Z,5.00
2018-04-02T20:20:40.882Z,5.00
2018-04-02T20:23:08.450Z,4.83
2018-04-02T20:25:35.866Z,5.40
2018-04-02T20:28:03.348Z,5.57
2018-04-02T20:30:30.837Z,5.67
2018-04-02T20:32:58.286Z,5.20
2018-04-02T20:35:25.744Z,5.70
2018-04-02T20:37:54.020Z,6.83
2018-04-02T20:40:21.485Z,6.43
2018-04-02T20:42:49.707Z,6.17
2018-04-02T20:45:17.226Z,6.83
2018-04-02T20:47:44.686Z,6.07
2018-04-02T20:50:12.490Z,6.03
2018-04-02T20:52:39.946Z,7.13
2018-04-02T20:55:07.418Z,6.77
2018-04-02T20:57:34.888Z,6.80
2018-04-02T21:00:02.363Z,6.83
2018-04-02T21:02:30.613Z,6.93
2018-04-02T21:04:58.075Z,6.53
2018-04-02T21:07:25.538Z,6.17
2018-04-02T21:09:52.998Z,7.50
2018-04-02T21:12:20.457Z,7.50
2018-04-02T21:14:47.936Z,7.83
2018-04-02T21:17:15.385Z,6.40
2018-04-02T21:19:42.875Z,6.87
2018-04-02T21:22:11.110Z,6.53
2018-04-02T21:24:38.715Z,7.40
2018-04-02T21:27:06.185Z,6.20
2018-04-02T21:29:35.389Z,6.47
2018-04-02T21:32:02.841Z,6.50
2018-04-02T21:34:30.308Z,6.33
2018-04-02T21:36:57.780Z,6.20
2018-04-02T21:39:25.228Z,6.17
2018-04-02T21:41:52.680Z,5.80
2018-04-02T21:44:20.214Z,6.47
2018-04-02T21:46:48.440Z,6.10
2018-04-02T21:49:15.898Z,6.70
2018-04-02T21:51:43.362Z,7.40
2018-04-02T21:54:10.819Z,6.37
2018-04-02T21:56:38.289Z,6.57
2018-04-02T21:59:05.750Z,7.20
2018-04-02T22:01:33.974Z,7.60
2018-04-02T22:04:01.422Z,7.20
2018-04-02T22:06:40.742Z,6.67
2018-04-02T22:09:09.322Z,7.43
2018-04-02T22:11:36.825Z,7.40
2018-04-02T22:14:04.291Z,7.33
2018-04-02T22:16:31.750Z,7.43
2018-04-02T22:18:59.200Z,8.63
2018-04-02T22:21:26.669Z,8.13
2018-04-02T22:23:54.429Z,8.77
2018-04-02T22:26:21.881Z,8.70
2018-04-02T22:28:49.395Z,8.20
2018-04-02T22:31:17.581Z,9.17
2018-04-02T22:33:45.039Z,10.70
2018-04-02T22:36:12.509Z,12.17
2018-04-02T22:38:39.965Z,12.23
2018-04-02T22:41:07.425Z,12.23
2018-04-02T22:43:34.951Z,14.50
2018-04-02T22:46:02.409Z,14.00
2018-04-02T22:48:29.870Z,13.53
2018-04-02T22:50:57.342Z,13.83
2018-04-02T22:53:25.031Z,14.83
2018-04-02T22:55:53.288Z,15.10
2018-04-02T22:58:20.809Z,14.50
2018-04-02T23:00:48.270Z,14.50
2018-04-02T23:03:15.729Z,15.07
2018-04-02T23:05:43.213Z,12.80
2018-04-02T23:08:10.679Z,15.83
2018-04-02T23:10:38.133Z,12.97
2018-04-02T23:13:05.607Z,13.87
2018-04-02T23:15:33.603Z,14.40
2018-04-02T23:18:01.075Z,13.50
2018-04-02T23:20:28.533Z,12.60
2018-04-02T23:22:56.007Z,12.87
2018-04-02T23:25:23.463Z,13.00
2018-04-02T23:27:51.007Z,13.97
2018-04-02T23:30:18.460Z,13.40
2018-04-02T23:32:46.674Z,14.87
2018-04-02T23:35:14.150Z,13.70
2018-04-02T23:37:41.614Z,15.17
2018-04-02T23:40:09.081Z,15.97
2018-04-02T23:42:37.317Z,13.37
2018-04-02T23:45:04.778Z,13.77
2018-04-02T23:47:32.237Z,13.37
2018-04-02T23:49:59.716Z,14.47
2018-04-02T23:52:27.209Z,15.03
2018-04-02T23:54:55.437Z,14.67
2018-04-02T23:57:22.897Z,14.93
2018-04-02T23:59:50.366Z,14.37
